Saint James, MO

9:41 PM CST on January 25, 2015 (GMT -0600)
Rosati, Missouri | Change Station
CLOSE
Current Station
Personal Weather Station
Location: St. James, MO
Elevation: 1043 ft
Nearby Weather Stations

Elev 1043 ft 38.03 °N, 91.54 °W | Updated 1 minute ago

Overcast
Overcast
31.3 °F
Feels Like 25 °F
N
6.0
Wind Variable Wind from NE
Gusts 14.0 mph

Today
High -- | Low -- °F
--% Chance of Precip.
Yesterday
High -- | Low -- °F
Precip. -- in
7:16 AM 5:21 PM
Waxing Crescent, 38% visible
Pressure 30.00 in
Visibility 8.0 miles
Clouds Overcast 500 ft
Windchill 25 °F
Dew Point 30 °F
Humidity 94%
Rainfall 0.08 in
Snow Depth Not available.
UV 0 out of 12
Pollen .10 out of 12
Air Quality Not available.
Flu Activity Not available.
METAR KVIH 260253Z AUTO 33017G23KT 8SM OVC005 M01/M02 A2998 RMK AO2 SLP159 60000 T10061022 51037

More Conditions Fewer Conditions

Pressure 30.00 in
Visibility 8.0 miles
Clouds Overcast 500 ft
Windchill 25 °F
Dew Point 30 °F
Humidity 94%
Rainfall 0.08 in
Snow Depth Not available.
UV 0 out of 12
Pollen .10 out of 12
Air Quality Not available.
Flu Activity Not available.
METAR KVIH 260253Z AUTO 33017G23KT 8SM OVC005 M01/M02 A2998 RMK AO2 SLP159 60000 T10061022 51037

More Conditions Fewer Conditions

10-Day Weather Forecast

Almanac

Astronomy

Jan. 25, 2015 Rise Set
Actual Time
Civil Twilight
Nautical Twilight
Astronomical Twilight
Moon
Length of Visible Light
Length of Day
Tomorrow will be .
, % of the Moon is Illuminated

Today's Extremes

State Highs State Lows

Community

WunderPhotos

Upload Photos

1,790,106 photos uploaded!

WunderBlogs® & News

Nearby

Air Quality

  Air Quality AQ Index Pollutant
Not available.

Snow Depth

Station Depth Elevation

Earthquake Activity

City Distance Mag. Time & Date
Minimum magnitude displayed is 2.5.

Coastal Water Temperatures

Place Temperature

Nearby Weather Stations